Time;durP1;ratioP1;P1;durP2;ratioP2;P2;SDS_P1;SDS_P2;PMS_P1;PMS_P2;Temp;Humidity;BMP_temperature;BMP_pressure;BME280_temperature;BME280_humidity;BME280_pressure;Samples;Min_cycle;Max_cycle;Signal;HPM_P1;HPM_P2
2022/04/01 00:00:42;;;;;;;8.67;7.93;;;6.90;80.20;;;;;;940379;151;27269;-80
2022/04/01 00:03:09;;;;;;;10.50;9.60;;;6.90;80.10;;;;;;940249;150;27962;-80
2022/04/01 00:05:35;;;;;;;9.33;8.43;;;6.90;80.00;;;;;;945330;149;27432;-80
2022/04/01 00:08:02;;;;;;;9.90;9.00;;;6.90;80.00;;;;;;955233;149;27454;-80
2022/04/01 00:10:29;;;;;;;9.57;8.77;;;6.90;80.00;;;;;;939707;151;27305;-81
2022/04/01 00:12:55;;;;;;;9.57;8.73;;;6.90;80.10;;;;;;948385;147;27372;-81
2022/04/01 00:15:22;;;;;;;9.23;8.43;;;6.90;80.30;;;;;;956495;148;27836;-81
2022/04/01 00:17:48;;;;;;;10.50;9.60;;;6.90;80.30;;;;;;939021;152;27485;-81
2022/04/01 00:20:16;;;;;;;9.10;8.27;;;6.90;80.20;;;;;;937862;152;27702;-81
2022/04/01 00:22:42;;;;;;;9.60;8.80;;;6.80;80.40;;;;;;950757;149;27325;-81
2022/04/01 00:25:08;;;;;;;10.10;9.13;;;6.80;80.30;;;;;;938852;150;27285;-80
2022/04/01 00:27:35;;;;;;;9.73;8.83;;;6.80;80.60;;;;;;940149;150;27339;-81
2022/04/01 00:30:01;;;;;;;9.43;8.63;;;6.80;81.00;;;;;;960004;148;27425;-81
2022/04/01 00:32:28;;;;;;;8.53;7.73;;;6.80;81.00;;;;;;956575;149;27250;-81
2022/04/01 00:34:54;;;;;;;8.23;7.53;;;6.80;81.80;;;;;;954538;149;27348;-81
2022/04/01 00:37:21;;;;;;;9.63;8.73;;;6.80;81.20;;;;;;942268;149;27474;-81
2022/04/01 00:39:47;;;;;;;9.10;8.30;;;6.80;80.80;;;;;;947531;150;27432;-80
2022/04/01 00:42:14;;;;;;;10.60;9.57;;;6.80;80.80;;;;;;958855;148;27394;-80
2022/04/01 00:44:41;;;;;;;9.33;8.53;;;6.80;80.60;;;;;;956486;148;27304;-81
2022/04/01 00:47:07;;;;;;;8.50;7.80;;;6.80;80.90;;;;;;960166;144;27615;-78
2022/04/01 00:49:34;;;;;;;8.90;8.07;;;6.80;80.90;;;;;;957939;145;27323;-78
2022/04/01 00:52:03;;;;;;;9.00;8.23;;;6.80;80.70;;;;;;962500;146;27347;-78
2022/04/01 00:54:30;;;;;;;8.43;7.63;;;6.80;81.40;;;;;;960469;146;27473;-78
2022/04/01 00:56:57;;;;;;;8.57;7.87;;;6.80;80.60;;;;;;960154;146;27402;-78
2022/04/01 00:59:24;;;;;;;8.73;8.03;;;6.70;80.40;;;;;;958636;146;27445;-78
2022/04/01 01:01:50;;;;;;;8.90;8.17;;;6.70;80.30;;;;;;960775;146;27344;-77
2022/04/01 01:04:16;;;;;;;9.00;8.20;;;6.70;80.30;;;;;;960425;146;27436;-78
2022/04/01 01:06:43;;;;;;;10.43;9.53;;;6.70;80.40;;;;;;959453;146;28114;-78
2022/04/01 01:09:09;;;;;;;8.50;7.70;;;6.60;80.40;;;;;;960186;146;27297;-78
2022/04/01 01:11:36;;;;;;;8.10;7.43;;;6.60;80.40;;;;;;960207;146;27398;-78
2022/04/01 01:14:03;;;;;;;8.73;7.93;;;6.60;80.60;;;;;;960186;146;27341;-78
2022/04/01 01:16:29;;;;;;;9.30;8.50;;;6.50;80.60;;;;;;960558;146;27700;-78
2022/04/01 01:18:59;;;;;;;8.83;8.07;;;6.50;80.60;;;;;;960323;146;28090;-78
2022/04/01 01:21:26;;;;;;;8.50;7.77;;;6.50;80.70;;;;;;957384;146;27416;-78
2022/04/01 01:23:52;;;;;;;9.43;8.63;;;6.50;81.00;;;;;;960089;146;27353;-78
2022/04/01 01:26:19;;;;;;;9.37;8.47;;;6.40;81.00;;;;;;959662;146;27859;-78
2022/04/01 01:28:45;;;;;;;8.43;7.73;;;6.40;81.00;;;;;;959057;146;27323;-78
2022/04/01 01:31:12;;;;;;;9.23;8.43;;;6.40;81.00;;;;;;959621;146;27356;-78
2022/04/01 01:33:40;;;;;;;8.90;8.10;;;6.40;81.00;;;;;;958542;146;27389;-78
2022/04/01 01:36:05;;;;;;;8.13;7.47;;;6.40;81.00;;;;;;958435;146;27273;-78
2022/04/01 01:38:32;;;;;;;8.83;7.97;;;6.30;81.30;;;;;;961817;146;27347;-78
2022/04/01 01:40:58;;;;;;;9.10;8.30;;;6.30;81.70;;;;;;958730;146;27360;-77
2022/04/01 01:43:25;;;;;;;7.67;7.07;;;6.30;81.40;;;;;;959693;146;27424;-77
2022/04/01 01:45:51;;;;;;;7.93;7.30;;;6.30;81.50;;;;;;959551;146;27305;-77
2022/04/01 01:48:21;;;;;;;8.50;7.70;;;6.30;81.50;;;;;;955530;146;27246;-77
2022/04/01 01:56:14;;;;;;;6.87;6.37;;;6.20;81.40;;;;;;957097;146;27380;-80
2022/04/01 01:58:40;;;;;;;7.57;6.97;;;6.20;81.50;;;;;;956953;146;27303;-80
2022/04/01 02:01:07;;;;;;;7.50;6.90;;;6.20;81.40;;;;;;955496;146;27377;-80
2022/04/01 02:03:34;;;;;;;7.37;6.77;;;6.20;81.40;;;;;;956165;146;27314;-80
2022/04/01 02:06:00;;;;;;;7.03;6.33;;;6.20;81.50;;;;;;953216;146;27346;-80
2022/04/01 02:08:27;;;;;;;7.60;6.97;;;6.20;81.50;;;;;;954234;146;27887;-80
2022/04/01 02:10:53;;;;;;;7.80;7.10;;;6.20;81.50;;;;;;953070;146;27800;-80
2022/04/01 02:13:20;;;;;;;7.27;6.67;;;6.20;81.60;;;;;;953889;146;27333;-80
2022/04/01 02:15:46;;;;;;;7.90;7.20;;;6.10;81.60;;;;;;955013;146;27329;-77
2022/04/01 02:18:13;;;;;;;7.13;6.63;;;6.10;81.60;;;;;;956784;146;27386;-77
2022/04/01 02:20:40;;;;;;;7.50;6.90;;;6.10;81.80;;;;;;954897;146;28481;-78
2022/04/01 02:23:06;;;;;;;7.97;7.37;;;6.10;80.90;;;;;;955198;146;27337;-78
2022/04/01 02:25:33;;;;;;;8.23;7.53;;;6.10;81.70;;;;;;955073;146;27438;-78
2022/04/01 02:27:59;;;;;;;8.97;8.17;;;6.10;81.70;;;;;;955059;146;27397;-78
2022/04/01 02:30:26;;;;;;;7.73;7.03;;;6.10;81.90;;;;;;954710;146;27369;-78
2022/04/01 02:32:53;;;;;;;7.57;6.97;;;6.10;82.10;;;;;;954062;146;28528;-78
2022/04/01 02:35:19;;;;;;;8.57;7.87;;;6.10;82.20;;;;;;956168;146;27350;-78
2022/04/01 02:37:47;;;;;;;7.53;6.93;;;6.00;82.10;;;;;;955012;146;27712;-78
2022/04/01 02:40:12;;;;;;;9.20;8.40;;;6.00;82.20;;;;;;955243;146;27312;-78
2022/04/01 02:42:39;;;;;;;9.57;8.67;;;6.00;82.20;;;;;;954329;146;27433;-78
2022/04/01 02:45:05;;;;;;;8.93;8.13;;;6.00;82.20;;;;;;953733;146;27339;-78
2022/04/01 02:47:32;;;;;;;8.57;7.87;;;6.00;82.40;;;;;;953845;146;27337;-78
2022/04/01 02:49:59;;;;;;;9.20;8.30;;;6.00;82.70;;;;;;936595;148;28371;-78
2022/04/01 02:52:25;;;;;;;9.67;8.87;;;6.00;82.70;;;;;;949070;148;27279;-78
2022/04/01 02:54:52;;;;;;;9.20;8.37;;;6.00;82.70;;;;;;950649;147;27333;-80
2022/04/01 02:57:18;;;;;;;8.97;8.23;;;6.00;82.70;;;;;;951138;147;27812;-80
2022/04/01 02:59:45;;;;;;;9.13;8.33;;;6.00;82.70;;;;;;950775;147;28065;-80
2022/04/01 03:02:12;;;;;;;8.20;7.50;;;6.10;82.80;;;;;;951104;147;27318;-81
2022/04/01 03:04:38;;;;;;;8.53;7.83;;;6.10;82.90;;;;;;950018;147;27431;-81
2022/04/01 03:07:05;;;;;;;8.13;7.43;;;6.00;82.80;;;;;;950271;147;27447;-80
2022/04/01 03:09:32;;;;;;;7.63;7.03;;;6.10;83.00;;;;;;952495;147;27895;-80
2022/04/01 03:11:58;;;;;;;7.60;7.00;;;6.10;83.20;;;;;;948579;147;27310;-81
2022/04/01 03:14:24;;;;;;;8.10;7.40;;;6.10;83.10;;;;;;948056;147;27354;-81
2022/04/01 03:16:51;;;;;;;8.07;7.37;;;6.10;83.30;;;;;;948154;147;27420;-80
2022/04/01 03:19:18;;;;;;;8.33;7.53;;;6.10;83.20;;;;;;948968;147;27354;-80
2022/04/01 03:21:45;;;;;;;7.87;7.17;;;6.10;83.20;;;;;;950715;147;27470;-80
2022/04/01 03:24:11;;;;;;;7.70;7.00;;;6.10;83.50;;;;;;949840;147;27296;-81
2022/04/01 03:26:40;;;;;;;7.60;6.93;;;6.20;83.40;;;;;;952207;147;27828;-81
2022/04/01 03:29:07;;;;;;;6.93;6.33;;;6.20;83.20;;;;;;943573;148;27318;-81
2022/04/01 03:31:33;;;;;;;6.97;6.47;;;6.20;83.40;;;;;;952194;147;27429;-81
2022/04/01 03:34:00;;;;;;;7.37;6.77;;;6.20;83.30;;;;;;952395;147;27311;-81
2022/04/01 03:36:26;;;;;;;7.37;6.77;;;6.20;83.40;;;;;;952216;147;27436;-81
2022/04/01 03:38:53;;;;;;;7.30;6.70;;;6.20;83.20;;;;;;954385;147;27378;-81
2022/04/01 03:41:20;;;;;;;7.97;7.27;;;6.20;83.20;;;;;;955808;147;27424;-80
2022/04/01 03:43:46;;;;;;;7.80;7.13;;;6.20;83.00;;;;;;939234;148;27442;-81
2022/04/01 03:46:17;;;;;;;7.07;6.47;;;6.20;83.10;;;;;;953785;147;27445;-81
2022/04/01 03:49:04;;;;;;;7.73;7.03;;;6.20;83.30;;;;;;944075;148;27376;-78
2022/04/01 03:51:30;;;;;;;6.93;6.43;;;6.20;83.00;;;;;;955326;149;27288;-79
2022/04/01 03:54:01;;;;;;;6.67;6.07;;;6.20;83.10;;;;;;942553;151;27441;-79
2022/04/01 03:56:32;;;;;;;7.23;6.63;;;6.10;83.00;;;;;;940399;151;27352;-79
2022/04/01 03:59:04;;;;;;;7.13;6.53;;;6.10;83.20;;;;;;951112;148;27413;-79
2022/04/01 04:01:31;;;;;;;7.10;6.50;;;6.10;83.10;;;;;;945427;149;27325;-79
2022/04/01 04:03:58;;;;;;;7.37;6.63;;;6.10;83.50;;;;;;950392;149;27232;-79
2022/04/01 04:06:24;;;;;;;7.43;6.73;;;6.10;83.20;;;;;;942627;151;27443;-79
2022/04/01 04:08:55;;;;;;;6.90;6.30;;;6.10;83.30;;;;;;956957;149;27339;-79
2022/04/01 04:11:20;;;;;;;6.87;6.30;;;6.00;83.30;;;;;;950752;149;27231;-79
2022/04/01 04:13:47;;;;;;;6.67;6.13;;;6.10;83.30;;;;;;945494;148;27289;-79
2022/04/01 04:16:19;;;;;;;6.90;6.30;;;6.10;83.60;;;;;;939962;151;27390;-79
2022/04/01 04:18:48;;;;;;;7.43;6.83;;;6.10;83.50;;;;;;942080;151;27972;-79
2022/04/01 04:21:18;;;;;;;6.80;6.20;;;6.10;83.50;;;;;;939838;151;27272;-79
2022/04/01 04:23:45;;;;;;;6.57;6.07;;;6.00;83.80;;;;;;939265;151;27407;-79
2022/04/01 04:26:15;;;;;;;6.90;6.30;;;6.00;83.90;;;;;;939377;151;27409;-79
2022/04/01 04:28:43;;;;;;;7.10;6.60;;;6.10;84.00;;;;;;940780;151;27350;-79
2022/04/01 04:31:10;;;;;;;7.17;6.57;;;6.10;84.20;;;;;;941866;151;27395;-79
2022/04/01 04:33:37;;;;;;;6.90;6.20;;;6.10;84.10;;;;;;941023;151;27419;-79
2022/04/01 04:36:06;;;;;;;6.97;6.43;;;6.10;83.90;;;;;;938619;151;27471;-79
2022/04/01 04:38:35;;;;;;;6.83;6.33;;;6.10;83.90;;;;;;937955;151;27378;-79
2022/04/01 04:41:01;;;;;;;6.97;6.37;;;6.10;83.90;;;;;;943066;151;27335;-79
2022/04/01 04:43:28;;;;;;;7.27;6.63;;;6.10;84.10;;;;;;949117;148;27274;-79
2022/04/01 04:45:58;;;;;;;7.03;6.43;;;6.00;83.90;;;;;;940914;149;27250;-79
2022/04/01 04:48:22;;;;;;;7.07;6.47;;;6.10;83.90;;;;;;941930;149;27391;-79
2022/04/01 04:50:48;;;;;;;7.50;6.80;;;6.00;83.90;;;;;;939953;151;27486;-78
2022/04/01 04:53:14;;;;;;;7.47;6.87;;;6.10;84.00;;;;;;942303;151;27306;-79
2022/04/01 04:55:41;;;;;;;7.70;7.00;;;6.00;84.10;;;;;;940305;151;27290;-79
2022/04/01 04:58:10;;;;;;;7.53;6.87;;;6.10;84.30;;;;;;943101;151;27415;-78
2022/04/01 05:00:37;;;;;;;7.47;6.87;;;6.10;84.20;;;;;;957459;149;27677;-79
2022/04/01 05:03:10;;;;;;;6.33;5.83;;;6.10;84.50;;;;;;951506;149;27238;-79
2022/04/01 05:05:38;;;;;;;6.53;5.93;;;6.10;84.60;;;;;;941171;149;27865;-79
2022/04/01 05:08:23;;;;;;;7.10;6.50;;;6.10;84.70;;;;;;956543;149;27743;-79
2022/04/01 05:10:55;;;;;;;7.80;7.03;;;6.10;84.70;;;;;;959419;149;27365;-81
2022/04/01 05:13:22;;;;;;;7.40;6.70;;;6.10;84.60;;;;;;937348;151;27278;-79
2022/04/01 05:15:54;;;;;;;7.43;6.83;;;6.10;84.70;;;;;;939055;151;27284;-79
2022/04/01 05:18:26;;;;;;;7.53;6.93;;;6.10;84.70;;;;;;956057;149;27347;-79
2022/04/01 05:20:53;;;;;;;6.67;6.07;;;6.10;85.30;;;;;;923748;152;27379;-79
2022/04/01 05:23:31;;;;;;;7.03;6.47;;;6.10;84.60;;;;;;940553;149;27398;-79
2022/04/01 05:26:01;;;;;;;6.77;6.17;;;6.10;84.80;;;;;;951205;148;27325;-78
2022/04/01 05:28:31;;;;;;;7.20;6.60;;;6.10;84.70;;;;;;938066;151;27365;-79
2022/04/01 05:30:58;;;;;;;6.17;5.63;;;6.10;83.70;;;;;;939520;152;27273;-79
2022/04/01 05:33:23;;;;;;;7.10;6.50;;;6.10;84.50;;;;;;936518;151;27276;-79
2022/04/01 05:35:51;;;;;;;6.00;5.60;;;6.10;84.40;;;;;;940498;151;27427;-79
2022/04/01 05:38:16;;;;;;;6.70;6.10;;;6.10;84.60;;;;;;940895;151;27403;-79
2022/04/01 05:40:43;;;;;;;6.13;5.53;;;6.10;84.60;;;;;;943345;151;27480;-79
2022/04/01 05:43:10;;;;;;;5.90;5.40;;;6.10;84.80;;;;;;949232;149;27695;-79
2022/04/01 05:45:36;;;;;;;5.40;5.00;;;6.10;85.50;;;;;;957223;149;27886;-79
2022/04/01 05:48:03;;;;;;;5.73;5.33;;;6.10;84.90;;;;;;955389;148;27405;-79
2022/04/01 05:50:30;;;;;;;6.30;5.33;;;6.10;85.00;;;;;;955800;148;27484;-79
2022/04/01 05:52:56;;;;;;;5.63;5.20;;;6.10;84.90;;;;;;955642;149;27421;-79
2022/04/01 05:55:22;;;;;;;5.17;4.77;;;6.10;84.90;;;;;;957426;149;27315;-79
2022/04/01 05:57:49;;;;;;;5.37;4.97;;;6.10;85.00;;;;;;952975;149;27348;-79
2022/04/01 06:00:16;;;;;;;5.87;5.37;;;6.20;85.30;;;;;;955937;148;27332;-79
2022/04/01 06:03:13;;;;;;;5.03;4.63;;;6.20;85.30;;;;;;955899;148;27331;-79
2022/04/01 06:05:51;;;;;;;5.07;4.67;;;6.20;86.10;;;;;;955966;148;27432;-79
2022/04/01 06:08:24;;;;;;;5.70;5.20;;;6.20;85.40;;;;;;955554;149;27461;-79
2022/04/01 06:11:00;;;;;;;5.53;5.07;;;6.20;85.40;;;;;;944277;151;27394;-79
2022/04/01 06:13:32;;;;;;;5.63;5.13;;;6.30;85.30;;;;;;957938;148;27829;-79
2022/04/01 06:16:20;;;;;;;5.43;4.93;;;6.30;85.20;;;;;;950910;148;27853;-79
2022/04/01 06:18:50;;;;;;;5.50;5.10;;;6.30;85.30;;;;;;939022;151;27538;-79
2022/04/01 06:21:16;;;;;;;5.47;4.87;;;6.30;85.10;;;;;;941016;151;27436;-79
2022/04/01 06:23:55;;;;;;;5.90;5.40;;;6.30;85.10;;;;;;940837;151;27804;-79
2022/04/01 06:26:21;;;;;;;6.40;5.87;;;6.30;85.00;;;;;;939601;150;27366;-79
2022/04/01 06:28:50;;;;;;;6.13;5.63;;;6.30;85.00;;;;;;943220;151;27277;-79
2022/04/01 06:31:17;;;;;;;5.60;5.20;;;6.30;84.90;;;;;;939865;151;27487;-79
2022/04/01 06:33:48;;;;;;;6.43;5.93;;;6.30;85.00;;;;;;943008;148;27476;-79
2022/04/01 06:36:13;;;;;;;6.13;5.63;;;6.30;85.10;;;;;;938054;152;27277;-79
2022/04/01 06:39:04;;;;;;;12.03;6.83;;;6.30;85.20;;;;;;941472;151;27313;-79
2022/04/01 06:41:31;;;;;;;7.00;6.40;;;6.30;85.20;;;;;;939098;152;27748;-79
2022/04/01 06:43:58;;;;;;;7.17;6.57;;;6.30;84.90;;;;;;943888;151;27408;-79
2022/04/01 06:46:24;;;;;;;7.57;6.97;;;6.30;84.60;;;;;;939970;152;27346;-79
2022/04/01 06:48:51;;;;;;;7.07;6.47;;;6.30;84.40;;;;;;953905;148;27387;-79
2022/04/01 06:51:17;;;;;;;7.70;7.00;;;6.30;84.50;;;;;;941576;151;27246;-79
2022/04/01 06:53:44;;;;;;;8.23;7.53;;;6.30;84.70;;;;;;945921;151;27309;-79
2022/04/01 06:56:10;;;;;;;7.90;7.27;;;6.30;84.60;;;;;;941204;151;27286;-79
2022/04/01 06:58:37;;;;;;;9.17;8.37;;;6.30;84.50;;;;;;942379;150;27377;-79
2022/04/01 07:01:04;;;;;;;8.93;8.03;;;6.30;84.50;;;;;;950394;148;27350;-79
2022/04/01 07:03:30;;;;;;;9.73;8.83;;;6.30;84.50;;;;;;956573;149;27303;-79
2022/04/01 07:05:58;;;;;;;10.20;9.30;;;6.20;84.30;;;;;;951096;149;27382;-79
2022/04/01 07:08:23;;;;;;;8.30;7.50;;;6.20;84.10;;;;;;942950;149;27348;-79
2022/04/01 07:10:50;;;;;;;8.53;7.77;;;6.20;84.20;;;;;;942902;150;27429;-79
2022/04/01 07:13:17;;;;;;;9.10;8.30;;;6.20;84.20;;;;;;940857;150;27316;-79
2022/04/01 07:15:45;;;;;;;9.87;8.97;;;6.20;84.20;;;;;;939596;152;27282;-79
2022/04/01 07:18:10;;;;;;;8.70;7.77;;;6.10;84.10;;;;;;956297;149;27341;-79
2022/04/01 07:20:36;;;;;;;9.77;8.87;;;6.10;84.10;;;;;;942659;151;27791;-79
2022/04/01 07:23:03;;;;;;;10.43;8.67;;;6.10;83.90;;;;;;956635;148;27460;-79
2022/04/01 07:25:30;;;;;;;8.70;8.00;;;6.10;84.10;;;;;;941859;151;28151;-79
2022/04/01 07:27:56;;;;;;;9.13;8.33;;;6.10;83.90;;;;;;940898;151;27292;-79
2022/04/01 07:30:23;;;;;;;8.67;7.80;;;6.00;83.90;;;;;;942058;148;27386;-79
2022/04/01 07:32:50;;;;;;;8.63;7.73;;;6.00;83.90;;;;;;957507;149;27372;-79
2022/04/01 07:35:16;;;;;;;8.27;7.50;;;6.00;83.80;;;;;;950989;149;27446;-79
2022/04/01 07:37:42;;;;;;;8.20;7.50;;;5.90;83.80;;;;;;940946;151;27474;-79
2022/04/01 07:40:09;;;;;;;7.67;6.97;;;5.90;83.80;;;;;;939877;149;27382;-79
2022/04/01 07:42:36;;;;;;;8.03;7.33;;;5.80;83.90;;;;;;955046;149;27350;-79
2022/04/01 07:45:05;;;;;;;7.50;6.80;;;5.80;83.90;;;;;;956319;149;27292;-79
2022/04/01 07:47:34;;;;;;;7.57;6.90;;;5.80;84.10;;;;;;956431;149;27359;-79
2022/04/01 07:50:01;;;;;;;6.83;6.23;;;5.80;84.20;;;;;;956166;149;27330;-79
2022/04/01 07:52:29;;;;;;;6.67;6.07;;;5.80;84.30;;;;;;955061;149;27358;-79
2022/04/01 07:54:54;;;;;;;6.77;6.13;;;5.80;84.40;;;;;;954788;149;27303;-79
2022/04/01 07:57:21;;;;;;;6.07;5.47;;;5.80;84.50;;;;;;955795;148;27882;-79
2022/04/01 07:59:47;;;;;;;6.87;6.27;;;5.80;84.60;;;;;;955653;149;27449;-79
2022/04/01 08:02:14;;;;;;;6.80;6.20;;;5.80;84.40;;;;;;944879;149;27309;-79
2022/04/01 08:04:41;;;;;;;6.60;6.00;;;5.80;84.40;;;;;;939756;151;27297;-78
2022/04/01 08:07:07;;;;;;;6.30;5.47;;;5.80;84.20;;;;;;942876;151;27304;-79
2022/04/01 08:09:34;;;;;;;7.50;6.37;;;5.80;84.10;;;;;;939528;150;27763;-79
2022/04/01 08:12:01;;;;;;;6.13;5.63;;;5.80;84.20;;;;;;959916;148;27307;-79
2022/04/01 08:14:27;;;;;;;7.37;6.43;;;5.80;84.20;;;;;;938146;152;27350;-79
2022/04/01 08:16:53;;;;;;;5.93;5.43;;;5.80;84.20;;;;;;947516;148;27301;-79
2022/04/01 08:19:22;;;;;;;6.20;5.60;;;5.80;84.30;;;;;;946734;149;27295;-79
2022/04/01 08:21:48;;;;;;;6.13;5.40;;;5.80;84.20;;;;;;941618;151;27376;-79
2022/04/01 08:24:13;;;;;;;6.00;5.47;;;5.80;84.10;;;;;;937980;151;27433;-79
2022/04/01 08:26:40;;;;;;;5.77;5.00;;;5.80;84.30;;;;;;958529;148;27293;-79
2022/04/01 08:29:06;;;;;;;6.10;5.50;;;5.80;84.30;;;;;;950514;149;27384;-79
2022/04/01 08:31:33;;;;;;;5.90;5.37;;;5.80;84.20;;;;;;952778;149;27321;-79
2022/04/01 08:33:59;;;;;;;7.37;5.20;;;5.80;84.20;;;;;;938731;150;27373;-79
2022/04/01 08:36:26;;;;;;;5.73;5.13;;;5.80;84.10;;;;;;939329;151;27425;-79
2022/04/01 08:38:53;;;;;;;6.17;5.57;;;5.80;84.20;;;;;;937701;152;27855;-79
2022/04/01 08:41:20;;;;;;;6.60;5.53;;;5.80;84.20;;;;;;958042;148;27375;-79
2022/04/01 08:43:46;;;;;;;8.47;5.77;;;5.80;84.10;;;;;;952367;149;27340;-80
2022/04/01 08:46:12;;;;;;;5.77;5.23;;;5.80;84.10;;;;;;957524;149;27457;-79
2022/04/01 08:48:39;;;;;;;6.00;5.40;;;5.80;84.30;;;;;;954989;149;27327;-79
2022/04/01 08:51:05;;;;;;;5.83;5.27;;;5.80;84.50;;;;;;942534;147;27345;-79
2022/04/01 08:53:37;;;;;;;6.77;6.17;;;5.80;84.50;;;;;;942973;148;27298;-79
2022/04/01 08:56:01;;;;;;;6.20;5.60;;;5.80;84.40;;;;;;936437;148;27414;-78
2022/04/01 08:58:28;;;;;;;5.60;5.10;;;5.80;84.40;;;;;;952652;147;28431;-79
2022/04/01 09:00:55;;;;;;;5.23;4.70;;;5.80;84.50;;;;;;953099;147;27695;-79
2022/04/01 09:03:21;;;;;;;5.97;5.13;;;5.80;84.70;;;;;;950957;147;27297;-79
2022/04/01 09:05:51;;;;;;;7.23;5.63;;;5.80;84.70;;;;;;952333;147;27356;-79
2022/04/01 09:08:17;;;;;;;6.37;5.77;;;5.80;84.70;;;;;;954026;147;27888;-79
2022/04/01 09:11:12;;;;;;;6.17;5.57;;;5.90;84.70;;;;;;952766;147;27375;-79
2022/04/01 09:13:43;;;;;;;7.17;5.60;;;5.90;84.70;;;;;;951722;147;27416;-79
2022/04/01 09:16:10;;;;;;;5.67;5.17;;;5.80;84.40;;;;;;954342;147;27293;-79
2022/04/01 09:18:39;;;;;;;5.27;4.77;;;5.80;85.20;;;;;;951017;147;27328;-79
2022/04/01 09:21:06;;;;;;;5.13;4.40;;;5.80;84.70;;;;;;951704;147;27365;-79
2022/04/01 09:23:32;;;;;;;4.80;4.40;;;5.80;84.90;;;;;;952712;147;27436;-79
2022/04/01 09:25:59;;;;;;;4.93;4.53;;;5.90;85.00;;;;;;954095;147;27298;-79
2022/04/01 09:28:32;;;;;;;5.53;5.03;;;5.90;84.90;;;;;;954313;147;27325;-78
2022/04/01 09:31:13;;;;;;;5.17;4.70;;;5.90;84.70;;;;;;952134;147;27366;-79
2022/04/01 09:33:49;;;;;;;5.37;4.97;;;5.90;84.70;;;;;;953231;147;27440;-78
2022/04/01 09:36:25;;;;;;;6.07;5.47;;;5.90;84.40;;;;;;954863;147;27348;-78
2022/04/01 09:39:08;;;;;;;5.93;5.30;;;5.90;84.20;;;;;;955976;147;27334;-78
2022/04/01 09:41:47;;;;;;;5.53;4.90;;;5.90;85.00;;;;;;953293;147;27766;-78
2022/04/01 09:44:16;;;;;;;5.27;4.77;;;5.90;84.10;;;;;;950952;147;27364;-78
2022/04/01 09:46:46;;;;;;;4.70;4.20;;;5.80;84.40;;;;;;952071;147;27308;-78
2022/04/01 09:49:12;;;;;;;5.10;4.60;;;5.80;84.60;;;;;;955955;147;27429;-78
2022/04/01 09:51:41;;;;;;;5.00;4.57;;;5.80;84.80;;;;;;952847;147;27360;-78
2022/04/01 09:54:11;;;;;;;5.10;4.70;;;5.80;85.20;;;;;;953471;147;27342;-78
2022/04/01 09:56:43;;;;;;;4.60;4.20;;;5.80;85.00;;;;;;952274;147;27428;-78
2022/04/01 09:59:11;;;;;;;4.83;4.43;;;5.90;85.10;;;;;;950896;147;27399;-78
2022/04/01 10:01:37;;;;;;;5.60;5.10;;;5.90;85.00;;;;;;953590;147;27297;-78
2022/04/01 10:04:03;;;;;;;4.90;4.47;;;5.90;85.10;;;;;;953225;147;27444;-78
2022/04/01 10:06:30;;;;;;;4.93;4.47;;;5.90;85.20;;;;;;954678;147;27353;-78
2022/04/01 10:08:56;;;;;;;4.87;4.47;;;5.90;84.90;;;;;;953625;147;27252;-78
2022/04/01 10:11:23;;;;;;;5.10;4.60;;;6.00;84.80;;;;;;952430;147;27417;-79
2022/04/01 10:13:50;;;;;;;4.30;4.00;;;5.90;84.60;;;;;;952291;147;27305;-79
2022/04/01 10:16:16;;;;;;;3.97;3.60;;;5.90;84.40;;;;;;955529;147;27428;-78
2022/04/01 10:18:43;;;;;;;4.20;3.80;;;5.90;84.60;;;;;;949715;148;27484;-78
2022/04/01 10:21:09;;;;;;;4.67;4.27;;;5.90;84.60;;;;;;939469;148;27432;-78
2022/04/01 10:23:36;;;;;;;4.87;4.37;;;5.90;84.60;;;;;;955697;145;27330;-78
2022/04/01 10:26:03;;;;;;;5.10;4.70;;;5.90;84.50;;;;;;953264;145;27802;-79
2022/04/01 10:28:29;;;;;;;5.20;4.77;;;5.90;84.20;;;;;;954389;145;27332;-79
2022/04/01 10:30:58;;;;;;;4.77;4.40;;;5.80;84.10;;;;;;953244;145;27399;-79
2022/04/01 10:33:25;;;;;;;4.93;4.53;;;5.80;84.40;;;;;;950425;147;27341;-79
2022/04/01 10:35:52;;;;;;;4.40;4.00;;;5.80;84.40;;;;;;949278;147;28050;-79
2022/04/01 10:38:19;;;;;;;5.90;4.17;;;5.80;84.60;;;;;;949104;147;27428;-79
2022/04/01 10:40:45;;;;;;;5.20;4.53;;;5.80;84.70;;;;;;947823;147;27419;-79
2022/04/01 10:43:20;;;;;;;5.00;4.60;;;5.70;84.40;;;;;;949466;147;27321;-79
2022/04/01 10:46:05;;;;;;;5.37;4.87;;;5.70;84.50;;;;;;961488;144;27294;-79
2022/04/01 10:54:01;;;;;;;4.93;4.53;;;5.60;84.40;;;;;;942887;151;27439;-79
2022/04/01 10:56:28;;;;;;;5.30;4.80;;;5.50;84.80;;;;;;941130;150;27377;-79
2022/04/01 10:59:09;;;;;;;4.63;4.23;;;5.50;85.00;;;;;;939944;151;27438;-79
2022/04/01 11:01:36;;;;;;;4.47;4.07;;;5.50;85.40;;;;;;941083;151;27398;-79
2022/04/01 11:04:09;;;;;;;3.90;3.60;;;5.50;85.70;;;;;;940393;151;27325;-79
2022/04/01 11:06:35;;;;;;;4.73;4.33;;;5.50;86.00;;;;;;940228;152;27383;-78
2022/04/01 11:09:04;;;;;;;4.80;4.27;;;5.50;86.30;;;;;;936600;151;27340;-79
2022/04/01 11:11:28;;;;;;;4.83;4.43;;;5.50;86.50;;;;;;936892;152;27326;-78
2022/04/01 11:14:04;;;;;;;5.37;4.87;;;5.50;86.60;;;;;;945765;149;27278;-79
2022/04/01 11:16:45;;;;;;;4.27;3.93;;;5.60;86.30;;;;;;940516;151;27262;-78
2022/04/01 11:19:14;;;;;;;4.60;4.20;;;5.60;86.10;;;;;;937881;151;27376;-79
2022/04/01 11:21:41;;;;;;;6.30;5.10;;;5.60;86.30;;;;;;939286;151;27322;-79
2022/04/01 11:24:33;;;;;;;5.30;4.90;;;5.60;86.20;;;;;;940935;151;27314;-79
2022/04/01 11:27:05;;;;;;;5.73;5.23;;;5.60;86.00;;;;;;939258;151;27474;-81
2022/04/01 11:29:32;;;;;;;4.90;4.50;;;5.60;86.40;;;;;;951813;149;27388;-78
2022/04/01 11:32:01;;;;;;;5.20;4.80;;;5.60;85.50;;;;;;949895;148;27238;-79
2022/04/01 11:34:28;;;;;;;4.57;4.23;;;5.50;85.70;;;;;;947953;149;27343;-78
2022/04/01 11:36:54;;;;;;;5.97;5.47;;;5.50;85.60;;;;;;949814;150;28003;-79
2022/04/01 11:39:21;;;;;;;5.93;5.40;;;5.50;85.50;;;;;;941691;151;27348;-79
2022/04/01 11:41:47;;;;;;;5.43;4.97;;;5.50;85.40;;;;;;941529;151;27426;-79
2022/04/01 11:44:15;;;;;;;4.33;4.03;;;5.50;85.40;;;;;;949497;148;27325;-78
2022/04/01 11:46:41;;;;;;;5.17;4.67;;;5.40;85.70;;;;;;950310;149;27339;-79
2022/04/01 11:49:10;;;;;;;5.37;4.97;;;5.40;85.70;;;;;;949781;148;27637;-79
2022/04/01 11:51:36;;;;;;;5.97;5.37;;;5.40;85.70;;;;;;937757;151;27277;-79
2022/04/01 11:54:03;;;;;;;5.33;4.83;;;5.40;85.70;;;;;;939756;150;27308;-79
2022/04/01 11:56:30;;;;;;;5.43;4.83;;;5.40;85.70;;;;;;942930;151;27355;-79
2022/04/01 11:58:59;;;;;;;5.90;5.40;;;5.40;85.80;;;;;;956211;149;28338;-79
2022/04/01 12:01:25;;;;;;;6.33;5.73;;;5.40;85.90;;;;;;957845;149;27324;-78
2022/04/01 12:03:52;;;;;;;6.07;5.57;;;5.40;86.00;;;;;;939070;151;27316;-79
2022/04/01 12:09:03;;;;;;;6.03;5.43;;;5.40;86.30;;;;;;938332;152;27360;-79
2022/04/01 12:11:30;;;;;;;6.83;5.70;;;5.30;86.30;;;;;;936908;152;27367;-79
2022/04/01 12:13:56;;;;;;;5.60;5.10;;;5.40;86.60;;;;;;938945;152;27341;-79
2022/04/01 12:16:24;;;;;;;6.07;5.50;;;5.40;86.70;;;;;;939338;150;27272;-79
2022/04/01 12:18:49;;;;;;;5.63;5.17;;;5.40;86.50;;;;;;954968;149;28049;-79
2022/04/01 12:21:16;;;;;;;5.40;5.00;;;5.40;86.30;;;;;;955227;149;27350;-79
2022/04/01 12:23:43;;;;;;;5.87;5.37;;;5.40;86.20;;;;;;939482;152;27408;-79
2022/04/01 12:26:09;;;;;;;7.50;4.73;;;5.40;86.00;;;;;;938829;150;27442;-79
2022/04/01 12:28:36;;;;;;;4.87;4.47;;;5.40;85.80;;;;;;940226;151;27415;-79
2022/04/01 12:31:02;;;;;;;5.60;5.10;;;5.40;85.50;;;;;;940612;151;27345;-79
2022/04/01 12:33:32;;;;;;;7.13;5.67;;;5.30;85.50;;;;;;941524;151;27441;-79
2022/04/01 12:36:01;;;;;;;4.97;4.53;;;5.30;85.80;;;;;;940056;151;27365;-79
2022/04/01 12:38:27;;;;;;;6.57;5.57;;;5.30;86.00;;;;;;941282;151;27458;-79
2022/04/01 12:40:54;;;;;;;6.30;5.70;;;5.30;86.00;;;;;;939367;151;27466;-79
2022/04/01 12:43:30;;;;;;;6.53;5.93;;;5.30;86.20;;;;;;938354;151;28381;-78
2022/04/01 12:46:02;;;;;;;5.80;5.20;;;5.30;86.10;;;;;;936290;149;27407;-79
2022/04/01 12:48:29;;;;;;;6.27;5.77;;;5.20;86.10;;;;;;934735;152;27290;-79
2022/04/01 12:50:58;;;;;;;5.77;5.27;;;5.20;86.30;;;;;;944757;151;27289;-79
2022/04/01 12:53:27;;;;;;;6.17;5.67;;;5.20;86.50;;;;;;944466;147;27484;-79
2022/04/01 12:55:55;;;;;;;5.13;4.73;;;5.20;86.40;;;;;;938958;148;27305;-79
2022/04/01 12:58:22;;;;;;;5.33;4.93;;;5.20;85.90;;;;;;949980;147;27339;-79
2022/04/01 13:00:47;;;;;;;6.30;5.70;;;5.20;85.80;;;;;;949333;147;27306;-79
2022/04/01 13:03:14;;;;;;;5.17;4.67;;;5.10;85.60;;;;;;949241;147;27357;-79
2022/04/01 13:05:40;;;;;;;4.90;4.50;;;5.10;85.80;;;;;;958050;144;27331;-79
2022/04/01 13:08:12;;;;;;;4.63;4.00;;;5.10;86.20;;;;;;939732;148;27380;-79
2022/04/01 13:10:36;;;;;;;5.90;5.30;;;5.10;86.20;;;;;;954371;147;27389;-79
2022/04/01 13:13:03;;;;;;;6.13;5.13;;;5.00;86.30;;;;;;951997;147;27440;-79
2022/04/01 13:15:30;;;;;;;5.10;4.60;;;5.00;86.60;;;;;;951671;147;27380;-79